Time;durP1;ratioP1;P1;durP2;ratioP2;P2;SDS_P1;SDS_P2;PMS_P1;PMS_P2;Temp;Humidity;BMP_temperature;BMP_pressure;BME280_temperature;BME280_humidity;BME280_pressure;Samples;Min_cycle;Max_cycle;Signal;HPM_P1;HPM_P2
2023/11/19 00:01:49;;;;;;;11.47;9.63;;;7.20;99.90;;;7.69;100.00;97879.91;10130251;28;20227;-67
2023/11/19 00:06:53;;;;;;;9.37;8.30;;;7.20;99.90;;;7.76;100.00;97881.22;10113404;28;20226;-66
2023/11/19 00:11:57;;;;;;;7.00;6.35;;;7.30;99.90;;;7.90;100.00;97875.41;10120948;28;20230;-65
2023/11/19 00:17:00;;;;;;;7.20;6.50;;;7.60;99.90;;;8.15;100.00;97871.94;10118600;28;20446;-66
2023/11/19 00:22:04;;;;;;;9.13;8.23;;;7.70;99.90;;;8.09;100.00;97873.31;10111630;28;20230;-67
2023/11/19 00:27:08;;;;;;;9.80;8.80;;;7.70;99.90;;;8.11;100.00;97874.28;10182407;28;20288;-65
2023/11/19 00:32:11;;;;;;;8.33;7.57;;;7.70;99.90;;;8.09;100.00;97852.06;10114629;28;20234;-65
2023/11/19 00:37:15;;;;;;;8.87;8.07;;;7.70;99.90;;;8.13;100.00;97838.78;10126870;28;20233;-65
2023/11/19 00:42:20;;;;;;;7.07;6.47;;;7.70;99.90;;;8.11;100.00;97836.09;10127525;28;20258;-66
2023/11/19 00:47:23;;;;;;;8.40;7.53;;;7.70;99.90;;;8.08;100.00;97841.00;10184676;28;20714;-66
2023/11/19 00:52:26;;;;;;;7.90;7.20;;;7.70;99.90;;;8.21;100.00;97836.72;10117782;28;20235;-66
2023/11/19 00:57:32;;;;;;;7.03;6.43;;;7.80;99.90;;;8.33;100.00;97842.63;10193375;28;20296;-66
2023/11/19 01:02:35;;;;;;;6.25;5.65;;;7.90;99.90;;;8.30;100.00;97830.56;10124376;28;20253;-66
2023/11/19 01:07:39;;;;;;;7.20;6.60;;;7.90;99.90;;;8.33;100.00;97832.44;10138939;28;20301;-66
2023/11/19 01:12:43;;;;;;;5.95;5.50;;;7.90;99.90;;;8.37;100.00;97828.41;10138203;28;20238;-66
2023/11/19 01:17:47;;;;;;;6.80;6.20;;;7.90;99.90;;;8.44;100.00;97825.50;10191936;28;20242;-66
2023/11/19 01:22:53;;;;;;;5.80;5.30;;;8.10;99.90;;;8.48;100.00;97814.75;10131100;28;20226;-66
2023/11/19 01:27:58;;;;;;;7.63;5.93;;;8.10;99.90;;;8.51;100.00;97813.28;10131003;28;20238;-66
2023/11/19 01:33:07;;;;;;;5.72;5.32;;;8.10;99.90;;;8.61;100.00;97808.75;10118270;28;20230;-66
2023/11/19 01:38:15;;;;;;;5.00;4.60;;;8.20;99.90;;;8.72;100.00;97803.56;10181291;28;20224;-67
2023/11/19 01:43:37;;;;;;;5.97;5.47;;;8.30;99.90;;;8.69;100.00;97795.72;10140198;28;20605;-66
2023/11/19 01:48:45;;;;;;;5.88;5.38;;;8.20;99.90;;;8.67;100.00;97781.13;10182561;28;20333;-66
2023/11/19 01:53:49;;;;;;;6.65;6.15;;;8.30;99.90;;;8.69;100.00;97782.97;10187631;28;20720;-66
2023/11/19 01:58:55;;;;;;;5.40;5.00;;;8.30;99.90;;;8.74;100.00;97791.81;10124394;28;20309;-66
2023/11/19 02:03:59;;;;;;;6.00;5.53;;;8.30;99.90;;;8.78;100.00;97787.78;10191128;28;20237;-66
2023/11/19 02:09:07;;;;;;;5.97;5.38;;;8.30;99.90;;;8.80;100.00;97782.00;10182696;28;20773;-66
2023/11/19 02:14:12;;;;;;;5.13;4.72;;;8.30;99.90;;;8.86;100.00;97781.50;10118682;28;20234;-66
2023/11/19 02:19:15;;;;;;;6.95;6.35;;;8.40;99.90;;;8.91;100.00;97782.66;10196974;28;20754;-66
2023/11/19 02:24:23;;;;;;;6.10;5.50;;;8.40;99.90;;;8.86;100.00;97765.31;10200494;28;20315;-66
2023/11/19 02:29:28;;;;;;;7.65;6.88;;;8.40;99.90;;;8.84;100.00;97783.06;10109459;28;20723;-67
2023/11/19 02:34:31;;;;;;;7.00;6.40;;;8.40;99.90;;;8.86;100.00;97766.19;10195035;28;20238;-67
2023/11/19 02:39:34;;;;;;;6.88;6.20;;;8.40;99.90;;;8.90;100.00;97763.06;10118669;28;20242;-66
2023/11/19 02:44:39;;;;;;;6.03;5.53;;;8.40;99.90;;;8.88;100.00;97763.75;10125119;28;21050;-65
2023/11/19 02:49:43;;;;;;;6.20;5.70;;;8.40;99.90;;;8.89;100.00;97761.28;10122888;28;20238;-66
2023/11/19 02:54:46;;;;;;;5.60;5.20;;;8.50;99.90;;;8.92;100.00;97768.25;10126393;28;20309;-66
2023/11/19 02:59:50;;;;;;;4.63;4.32;;;8.50;99.90;;;8.98;100.00;97759.28;10193918;28;20230;-66
2023/11/19 03:04:53;;;;;;;6.50;6.00;;;8.50;99.90;;;8.98;100.00;97772.03;10125716;28;20226;-65
2023/11/19 03:09:56;;;;;;;6.53;6.03;;;8.50;99.90;;;8.97;100.00;97769.41;10122982;28;20325;-66
2023/11/19 03:15:01;;;;;;;7.57;6.60;;;8.50;99.90;;;8.96;100.00;97758.34;10128088;28;20293;-66
2023/11/19 03:20:09;;;;;;;5.60;5.18;;;8.50;99.90;;;9.01;100.00;97773.91;10124058;28;20349;-66
2023/11/19 03:25:12;;;;;;;5.95;5.45;;;8.50;99.90;;;9.02;100.00;97768.91;10131074;28;20233;-66
2023/11/19 03:30:17;;;;;;;5.97;5.47;;;8.60;99.90;;;9.06;100.00;97764.88;10105217;28;20257;-66
2023/11/19 03:35:21;;;;;;;5.80;5.32;;;8.60;99.90;;;9.10;100.00;97776.13;10200233;28;20235;-66
2023/11/19 03:40:25;;;;;;;4.95;4.55;;;8.60;99.90;;;9.11;100.00;97778.78;10118268;28;20242;-66
2023/11/19 03:45:29;;;;;;;5.13;4.72;;;8.60;99.90;;;9.14;100.00;97767.91;10186090;28;20241;-66
2023/11/19 03:50:33;;;;;;;4.97;4.63;;;8.60;99.90;;;9.13;100.00;97761.03;10196359;28;20230;-67
2023/11/19 03:55:36;;;;;;;6.70;6.10;;;8.70;99.90;;;9.17;100.00;97745.13;10191851;28;20222;-67
2023/11/19 04:00:41;;;;;;;6.32;5.72;;;8.70;99.90;;;9.14;100.00;97753.47;10126263;28;20236;-67
2023/11/19 04:05:44;;;;;;;6.53;5.93;;;8.60;99.90;;;9.12;100.00;97733.78;10121537;28;20226;-66
2023/11/19 04:10:48;;;;;;;6.57;5.95;;;8.60;99.90;;;9.11;100.00;97726.94;10123726;28;20334;-66
2023/11/19 04:15:52;;;;;;;6.32;5.82;;;8.60;99.90;;;9.14;100.00;97709.25;10120045;28;20230;-66
2023/11/19 04:20:56;;;;;;;6.55;6.05;;;8.60;99.90;;;9.14;100.00;97722.00;10122302;28;20630;-64
2023/11/19 04:25:59;;;;;;;6.65;6.05;;;8.60;99.90;;;9.13;100.00;97720.22;10119521;28;20770;-65
2023/11/19 04:31:15;;;;;;;5.05;4.65;;;8.70;99.90;;;9.22;100.00;97715.69;10114026;28;20235;-65
2023/11/19 04:36:20;;;;;;;7.72;6.97;;;8.70;99.90;;;9.22;100.00;97705.50;10118594;28;20234;-66
2023/11/19 04:41:24;;;;;;;4.60;4.22;;;8.70;99.90;;;9.20;100.00;97707.94;10130791;28;20245;-66
2023/11/19 04:46:28;;;;;;;3.28;3.08;;;8.80;99.90;;;9.32;100.00;97712.00;10120044;28;20229;-67
2023/11/19 04:51:32;;;;;;;3.05;2.85;;;8.90;99.90;;;9.52;100.00;97713.19;10188612;28;20242;-66
2023/11/19 04:56:35;;;;;;;2.67;2.53;;;9.10;99.90;;;9.74;100.00;97713.66;10191188;28;20241;-66
2023/11/19 05:01:39;;;;;;;2.80;2.60;;;9.30;99.90;;;9.77;100.00;97713.84;10117387;28;20777;-64
2023/11/19 05:06:43;;;;;;;2.60;2.40;;;9.40;99.90;;;9.85;100.00;97717.72;10188878;28;20236;-65
2023/11/19 05:11:46;;;;;;;2.50;2.30;;;9.40;99.90;;;9.93;100.00;97721.59;10121959;28;20744;-66
2023/11/19 05:16:53;;;;;;;2.67;2.47;;;9.50;99.90;;;10.04;100.00;97709.41;10182050;28;20230;-66
2023/11/19 05:21:56;;;;;;;2.20;2.10;;;9.60;99.90;;;10.17;100.00;97715.22;10124904;28;20234;-65
2023/11/19 05:27:00;;;;;;;2.33;2.20;;;9.70;99.90;;;10.23;100.00;97723.22;10116980;28;20234;-66
2023/11/19 05:32:05;;;;;;;2.13;2.03;;;9.80;99.90;;;10.24;100.00;97730.06;10122125;28;20242;-66
2023/11/19 05:37:10;;;;;;;1.95;1.85;;;9.80;99.90;;;10.23;100.00;97720.66;10119051;28;20231;-66
2023/11/19 05:42:13;;;;;;;1.90;1.80;;;9.80;99.90;;;10.29;100.00;97716.81;10117638;28;20242;-66
2023/11/19 05:47:18;;;;;;;1.80;1.70;;;9.90;99.90;;;10.42;100.00;97712.41;10194763;28;20232;-65
2023/11/19 05:52:22;;;;;;;2.08;1.98;;;9.90;99.90;;;10.38;100.00;97719.88;10119064;28;20235;-66
2023/11/19 05:57:27;;;;;;;1.70;1.70;;;9.90;99.90;;;10.63;100.00;97722.91;10104652;28;21006;-67
2023/11/19 06:02:33;;;;;;;1.75;1.75;;;10.10;99.90;;;10.60;100.00;97721.06;10114058;28;20614;-65
2023/11/19 06:07:38;;;;;;;1.77;1.77;;;10.20;99.90;;;10.55;100.00;97719.91;10120808;28;20246;-66
2023/11/19 06:12:42;;;;;;;1.58;1.58;;;10.20;99.90;;;10.69;100.00;97728.34;10129043;28;20286;-67
2023/11/19 06:17:46;;;;;;;1.35;1.33;;;10.30;99.90;;;10.80;100.00;97706.78;10163724;28;20234;-66
2023/11/19 06:22:50;;;;;;;1.92;1.83;;;10.30;99.90;;;10.80;100.00;97712.78;10111538;28;20710;-66
2023/11/19 06:27:53;;;;;;;1.50;1.40;;;10.30;99.90;;;10.83;100.00;97712.06;10117381;28;20238;-67
2023/11/19 06:32:57;;;;;;;1.65;1.50;;;10.30;99.90;;;10.74;100.00;97712.47;10120221;28;20226;-66
2023/11/19 06:38:01;;;;;;;1.20;1.20;;;10.40;99.90;;;10.87;100.00;97731.00;10120439;28;20238;-66
2023/11/19 06:43:04;;;;;;;1.40;1.30;;;10.40;99.90;;;10.95;100.00;97710.16;10112879;28;20230;-66
2023/11/19 06:48:09;;;;;;;1.40;1.40;;;10.50;99.90;;;11.08;100.00;97733.84;10120402;28;20262;-67
2023/11/19 06:53:12;;;;;;;1.55;1.55;;;10.60;99.90;;;11.01;100.00;97723.25;10189922;28;20231;-66
2023/11/19 06:58:17;;;;;;;1.50;1.50;;;10.60;99.90;;;11.00;100.00;97739.41;10115768;28;20365;-67
2023/11/19 07:03:21;;;;;;;1.77;1.40;;;10.60;99.90;;;11.12;100.00;97744.31;10122059;28;20806;-66
2023/11/19 07:08:25;;;;;;;1.63;1.45;;;10.70;99.90;;;11.17;100.00;97742.88;10186203;28;20798;-65
2023/11/19 07:13:28;;;;;;;1.40;1.40;;;10.70;99.90;;;11.24;100.00;97746.63;10165068;28;20310;-65
2023/11/19 07:18:35;;;;;;;3.25;1.50;;;10.80;99.90;;;11.42;100.00;97741.59;10152568;28;20585;-65
2023/11/19 07:23:38;;;;;;;1.38;1.38;;;10.90;99.90;;;11.42;100.00;97768.06;10169305;28;20650;-66
2023/11/19 07:28:41;;;;;;;1.40;1.35;;;11.00;99.90;;;11.25;100.00;97774.00;10119207;28;20231;-66
2023/11/19 07:33:47;;;;;;;1.30;1.20;;;10.90;99.90;;;11.22;100.00;97769.59;10120368;28;20244;-65
2023/11/19 07:38:50;;;;;;;1.40;1.40;;;10.80;99.90;;;11.49;100.00;97752.22;10120560;28;20325;-66
2023/11/19 07:43:54;;;;;;;1.10;1.10;;;11.00;99.90;;;11.49;100.00;97769.25;10121218;28;20230;-65
2023/11/19 07:48:58;;;;;;;1.20;1.20;;;11.10;99.90;;;11.52;100.00;97779.66;10130356;28;20257;-65
2023/11/19 07:54:02;;;;;;;1.52;1.45;;;11.10;99.90;;;11.40;100.00;97773.91;10122382;28;20223;-64
2023/11/19 07:59:05;;;;;;;1.50;1.40;;;11.10;99.90;;;11.45;100.00;97775.03;10105810;28;20237;-66
2023/11/19 08:04:10;;;;;;;1.38;1.30;;;11.00;99.90;;;11.55;100.00;97769.56;10121827;28;20250;-66
2023/11/19 08:09:14;;;;;;;1.95;1.40;;;11.10;99.90;;;11.53;100.00;97780.53;10111955;28;20233;-65
2023/11/19 08:14:17;;;;;;;1.67;1.58;;;11.20;99.90;;;11.52;100.00;97779.66;10109293;28;20242;-66
2023/11/19 08:19:22;;;;;;;1.70;1.60;;;11.20;99.90;;;11.64;100.00;97758.94;10121474;28;20706;-66
2023/11/19 08:24:25;;;;;;;1.55;1.45;;;11.20;99.90;;;11.73;100.00;97764.50;10103102;28;20235;-66
2023/11/19 08:29:29;;;;;;;1.20;1.10;;;11.30;99.90;;;11.78;100.00;97772.44;10125418;28;20234;-66
2023/11/19 08:34:33;;;;;;;1.25;1.25;;;11.40;99.90;;;11.95;100.00;97769.06;10102625;28;20227;-66
2023/11/19 08:39:37;;;;;;;1.38;1.30;;;11.60;99.90;;;12.00;100.00;97770.19;10112394;28;21014;-66
2023/11/19 08:44:43;;;;;;;1.40;1.40;;;11.60;99.90;;;12.07;100.00;97772.25;10097099;28;20230;-66
2023/11/19 08:49:47;;;;;;;1.50;1.50;;;11.70;99.90;;;12.35;100.00;97773.59;10120118;28;20333;-66
2023/11/19 08:55:07;;;;;;;1.50;1.40;;;12.00;99.90;;;12.50;100.00;97764.06;10186887;28;20709;-66
2023/11/19 09:00:14;;;;;;;1.42;1.33;;;12.20;99.90;;;12.71;100.00;97753.09;10122133;28;20615;-65
2023/11/19 09:05:18;;;;;;;1.45;1.35;;;12.40;99.90;;;12.72;100.00;97772.81;10125975;28;20238;-67
2023/11/19 09:10:21;;;;;;;1.58;1.20;;;12.40;99.90;;;12.70;100.00;97787.22;10127987;28;20245;-66
2023/11/19 09:15:25;;;;;;;2.45;2.25;;;12.40;99.90;;;12.57;100.00;97799.47;10127037;28;20222;-65
2023/11/19 09:20:37;;;;;;;2.10;2.00;;;12.30;99.90;;;12.62;100.00;97803.16;10126670;28;20333;-65
2023/11/19 09:25:40;;;;;;;1.38;1.30;;;12.30;99.90;;;12.65;100.00;97809.19;10110043;28;20607;-66
2023/11/19 09:30:46;;;;;;;1.40;1.40;;;12.30;99.90;;;12.70;100.00;97802.63;10100802;28;20237;-66
2023/11/19 09:35:51;;;;;;;1.85;1.50;;;12.40;99.90;;;12.96;100.00;97815.00;10128948;28;20242;-67
2023/11/19 09:40:54;;;;;;;1.30;1.20;;;12.70;99.90;;;13.14;100.00;97808.97;10110659;28;20230;-66
2023/11/19 09:45:58;;;;;;;1.52;1.42;;;12.90;99.90;;;13.19;100.00;97799.78;10111854;28;20230;-66
2023/11/19 09:51:03;;;;;;;1.42;1.42;;;12.80;99.90;;;13.00;100.00;97808.31;10116774;28;20776;-66
2023/11/19 09:56:08;;;;;;;1.88;1.77;;;12.60;99.90;;;12.96;100.00;97797.06;10110359;28;20245;-66
2023/11/19 10:01:13;;;;;;;1.67;1.58;;;12.50;99.90;;;12.91;100.00;97805.34;10109557;28;20721;-67
2023/11/19 10:06:20;;;;;;;3.13;2.15;;;12.40;99.90;;;12.69;100.00;97806.88;10113425;28;20230;-67
2023/11/19 10:11:23;;;;;;;2.90;2.70;;;12.30;99.90;;;12.70;100.00;97792.34;10121196;28;20739;-66
2023/11/19 10:16:32;;;;;;;1.98;1.88;;;12.20;99.90;;;12.89;100.00;97795.00;10109364;28;20717;-65
2023/11/19 10:21:37;;;;;;;4.55;4.22;;;12.50;99.90;;;13.22;100.00;97790.53;10115598;28;20238;-65
2023/11/19 10:26:42;;;;;;;1.92;1.80;;;12.80;99.90;;;13.48;100.00;97786.63;10114348;28;20602;-64
2023/11/19 10:31:57;;;;;;;2.30;2.20;;;13.00;99.90;;;13.57;100.00;97780.13;10129160;28;20230;-65
2023/11/19 10:37:32;;;;;;;2.17;2.08;;;13.20;99.90;;;13.81;100.00;97778.59;10120319;28;20249;-66
2023/11/19 10:42:36;;;;;;;1.77;1.67;;;13.50;99.90;;;13.88;100.00;97749.81;10118704;28;20316;-67
2023/11/19 10:47:41;;;;;;;2.13;1.80;;;13.60;99.90;;;14.14;100.00;97761.19;10178909;28;20234;-64
2023/11/19 10:52:49;;;;;;;1.63;1.52;;;13.90;99.90;;;14.14;100.00;97762.88;10192022;28;20663;-65
2023/11/19 10:57:53;;;;;;;1.95;1.55;;;13.90;99.90;;;14.04;100.00;97760.72;10109518;28;20352;-65
2023/11/19 11:03:02;;;;;;;1.65;1.55;;;13.70;99.90;;;14.21;100.00;97744.31;10113060;28;20230;-66
2023/11/19 11:08:09;;;;;;;1.85;1.52;;;13.80;99.90;;;14.31;100.00;97738.72;10185254;28;20227;-66
2023/11/19 11:13:14;;;;;;;2.00;1.80;;;13.90;99.90;;;14.46;100.00;97735.03;10114547;28;20303;-66
2023/11/19 11:18:18;;;;;;;1.45;1.45;;;14.20;99.90;;;14.40;100.00;97746.81;10119776;28;20238;-66
2023/11/19 11:24:02;;;;;;;1.27;1.27;;;14.10;99.90;;;14.56;100.00;97737.16;10120321;28;20231;-67
2023/11/19 11:29:12;;;;;;;1.48;1.38;;;14.20;99.90;;;14.53;100.00;97737.03;10124894;28;20385;-66
2023/11/19 11:34:41;;;;;;;1.33;1.33;;;14.20;99.90;;;14.66;100.00;97729.00;10189088;28;20256;-68
2023/11/19 11:39:47;;;;;;;1.35;1.25;;;14.20;99.90;;;14.62;100.00;97728.00;10115598;28;20755;-66
2023/11/19 11:45:02;;;;;;;1.50;1.48;;;14.30;99.90;;;14.69;100.00;97736.81;10114452;28;20765;-65
2023/11/19 11:50:09;;;;;;;1.55;1.45;;;14.30;99.90;;;14.60;100.00;97733.91;10123912;28;20230;-66
2023/11/19 11:55:17;;;;;;;1.77;1.27;;;14.20;99.90;;;14.59;100.00;97737.28;10109613;28;20227;-66
2023/11/19 12:00:23;;;;;;;1.95;1.85;;;14.20;99.90;;;14.70;100.00;97743.72;10100206;28;20231;-68
2023/11/19 12:05:27;;;;;;;2.78;2.58;;;14.30;99.90;;;14.81;100.00;97733.84;10116297;28;20231;-67
2023/11/19 12:10:37;;;;;;;2.75;2.55;;;14.40;99.90;;;14.78;100.00;97723.44;10099120;28;20233;-67
2023/11/19 12:16:11;;;;;;;2.53;2.33;;;14.30;99.90;;;14.59;100.00;97717.59;10115337;28;20230;-67
2023/11/19 12:21:29;;;;;;;4.75;3.78;;;14.10;99.90;;;14.29;100.00;97712.06;10119474;28;20230;-64
2023/11/19 12:26:39;;;;;;;7.80;7.03;;;13.80;99.90;;;14.19;100.00;97707.38;10111662;28;20234;-67
2023/11/19 12:31:45;;;;;;;7.68;6.00;;;13.70;99.90;;;14.31;100.00;97697.59;10107242;28;20241;-67
2023/11/19 12:36:49;;;;;;;3.50;3.20;;;13.80;99.90;;;14.61;100.00;97690.22;10110857;28;20233;-67
2023/11/19 12:41:54;;;;;;;2.22;2.10;;;14.10;99.90;;;14.84;100.00;97677.34;10115220;28;20962;-67
2023/11/19 12:47:04;;;;;;;1.70;1.60;;;14.40;99.90;;;15.22;100.00;97662.41;10115240;28;20230;-66
2023/11/19 12:52:14;;;;;;;2.28;1.50;;;14.80;99.90;;;15.25;97.50;97650.56;10125482;28;20244;-68
2023/11/19 12:57:19;;;;;;;1.50;1.40;;;15.00;99.90;;;15.33;99.54;97654.25;10101445;28;20230;-67
2023/11/19 13:02:23;;;;;;;3.05;1.38;;;15.10;99.90;;;15.44;94.27;97635.72;10111294;28;20353;-67
2023/11/19 13:07:26;;;;;;;1.35;1.23;;;15.30;99.90;;;15.42;94.70;97642.50;10112536;28;20281;-67
2023/11/19 13:12:30;;;;;;;2.53;1.20;;;15.40;99.90;;;15.25;93.13;97645.41;10093792;28;20243;-66
2023/11/19 13:17:33;;;;;;;1.33;1.23;;;15.10;99.90;;;15.17;91.93;97641.69;10103921;28;20246;-66
2023/11/19 13:22:37;;;;;;;2.00;1.38;;;15.00;99.90;;;15.09;91.17;97636.25;10130428;28;20714;-67
2023/11/19 13:27:47;;;;;;;1.75;1.40;;;14.90;99.90;;;15.05;89.77;97641.22;10106940;28;20252;-66
2023/11/19 13:32:51;;;;;;;1.40;1.30;;;14.90;99.90;;;14.92;90.31;97637.34;10116335;28;20744;-67
2023/11/19 13:37:54;;;;;;;1.40;1.30;;;14.70;99.90;;;14.89;89.68;97638.94;10115567;28;20230;-67
2023/11/19 13:42:58;;;;;;;1.73;1.40;;;14.70;99.90;;;14.81;88.29;97630.91;10112238;28;20237;-66
2023/11/19 13:48:02;;;;;;;2.72;1.65;;;14.50;99.90;;;14.81;92.05;97630.91;10113705;28;20234;-66
2023/11/19 13:53:05;;;;;;;1.63;1.40;;;14.40;99.90;;;14.84;92.49;97620.72;10112826;28;20230;-67
2023/11/19 13:58:10;;;;;;;1.70;1.60;;;14.40;99.90;;;14.79;87.68;97617.13;10110492;28;20231;-67
2023/11/19 14:03:13;;;;;;;2.30;1.45;;;14.40;99.90;;;14.55;83.41;97617.97;10126536;28;20237;-66
2023/11/19 14:08:16;;;;;;;1.60;1.38;;;14.30;99.90;;;14.52;83.72;97623.00;10116992;28;20711;-66
2023/11/19 14:13:29;;;;;;;1.50;1.42;;;14.20;99.90;;;14.34;82.19;97630.88;10131684;28;20579;-66
2023/11/19 14:18:34;;;;;;;1.70;1.60;;;14.10;99.90;;;14.40;83.48;97617.38;10122695;28;20270;-65
2023/11/19 14:23:38;;;;;;;1.42;1.33;;;14.00;99.90;;;14.42;83.09;97624.31;10113772;28;20234;-65
2023/11/19 14:28:45;;;;;;;2.90;1.50;;;14.00;99.90;;;14.42;82.54;97620.84;10118761;28;20249;-68
2023/11/19 14:33:51;;;;;;;1.90;1.48;;;14.00;99.90;;;14.40;82.87;97612.22;10177231;28;20622;-66
2023/11/19 14:38:58;;;;;;;1.23;1.17;;;13.90;99.90;;;14.10;83.10;97611.91;10107060;28;20227;-66
2023/11/19 14:44:03;;;;;;;1.67;1.58;;;13.60;99.90;;;14.05;83.96;97619.44;10128560;28;20246;-66
2023/11/19 14:49:07;;;;;;;1.60;1.50;;;13.50;99.90;;;13.79;85.44;97620.94;10120008;28;20704;-67
2023/11/19 14:54:10;;;;;;;2.80;2.30;;;13.30;99.90;;;13.62;85.68;97621.97;10115907;28;20275;-66
2023/11/19 14:59:15;;;;;;;2.63;1.90;;;13.10;99.90;;;13.56;84.70;97626.84;10116152;28;20594;-66
2023/11/19 15:04:18;;;;;;;2.88;1.80;;;12.90;99.90;;;13.29;87.87;97624.88;10096973;28;20591;-66
2023/11/19 15:09:21;;;;;;;1.80;1.70;;;12.70;99.90;;;13.19;91.98;97627.81;10126003;28;20239;-67
2023/11/19 15:14:26;;;;;;;2.50;1.80;;;12.50;99.90;;;12.87;92.21;97623.84;10178794;28;20238;-66
2023/11/19 15:19:29;;;;;;;2.60;2.00;;;12.20;99.90;;;12.68;93.76;97629.88;10102224;28;20235;-67
2023/11/19 15:24:33;;;;;;;2.60;1.77;;;12.00;99.90;;;12.57;99.76;97631.94;10103842;28;20241;-66
2023/11/19 15:29:39;;;;;;;2.45;2.03;;;11.90;99.90;;;12.46;100.00;97648.53;10106912;28;20230;-65
2023/11/19 15:34:42;;;;;;;2.70;2.50;;;11.70;99.90;;;12.38;100.00;97650.72;10180744;28;20273;-66
2023/11/19 15:39:46;;;;;;;3.70;2.72;;;11.60;99.90;;;12.14;98.41;97648.78;10109043;28;20247;-65
2023/11/19 15:44:51;;;;;;;3.38;3.08;;;11.40;99.90;;;11.97;100.00;97649.66;10174985;28;20324;-65
2023/11/19 15:49:54;;;;;;;5.45;4.07;;;11.30;99.90;;;11.80;100.00;97653.91;10109557;28;20316;-65
2023/11/19 15:54:57;;;;;;;4.85;4.45;;;11.10;99.90;;;11.64;100.00;97659.09;10105263;28;20226;-64
2023/11/19 16:00:02;;;;;;;6.47;5.85;;;10.90;99.90;;;11.52;100.00;97650.81;10181692;28;20255;-64
2023/11/19 16:05:08;;;;;;;6.65;6.05;;;10.80;99.90;;;11.49;100.00;97662.63;10121760;28;20240;-65
2023/11/19 16:10:15;;;;;;;5.55;4.68;;;10.80;99.90;;;11.46;100.00;97652.25;10107586;28;20255;-65
2023/11/19 16:15:20;;;;;;;3.80;3.50;;;10.80;99.90;;;11.48;100.00;97649.78;10121152;28;20324;-65
2023/11/19 16:20:26;;;;;;;3.33;3.00;;;10.80;99.90;;;11.37;100.00;97648.38;10128345;28;20230;-65
2023/11/19 16:25:30;;;;;;;6.28;5.00;;;10.70;99.90;;;11.29;100.00;97647.97;10157630;28;20231;-66
2023/11/19 16:30:35;;;;;;;10.00;7.47;;;10.60;99.90;;;11.15;100.00;97659.16;10114513;28;20238;-64
2023/11/19 16:35:38;;;;;;;8.52;7.20;;;10.50;99.90;;;11.10;100.00;97665.72;10108732;28;20420;-65
2023/11/19 16:40:42;;;;;;;7.03;6.30;;;10.40;99.90;;;11.04;100.00;97671.41;10106396;28;20564;-65
2023/11/19 16:45:47;;;;;;;7.07;5.88;;;10.40;99.90;;;10.93;100.00;97669.97;10177284;28;20234;-64
2023/11/19 16:50:50;;;;;;;3.67;3.33;;;10.30;99.90;;;10.77;100.00;97679.38;10182297;28;20234;-63
2023/11/19 16:55:56;;;;;;;7.03;5.10;;;10.10;99.90;;;10.70;100.00;97681.53;10123948;28;20682;-63
2023/11/19 17:01:00;;;;;;;2.63;2.42;;;10.00;99.90;;;10.54;100.00;97690.06;10118235;28;20230;-64
2023/11/19 17:06:04;;;;;;;2.72;2.25;;;10.00;99.90;;;10.57;100.00;97682.56;10114588;28;20724;-64
2023/11/19 17:11:07;;;;;;;3.10;2.30;;;10.00;99.90;;;10.65;100.00;97696.63;10121923;28;20230;-64
2023/11/19 17:16:12;;;;;;;2.70;2.50;;;10.00;99.90;;;10.55;100.00;97691.81;10123504;28;20348;-64
2023/11/19 17:21:16;;;;;;;2.70;2.50;;;9.90;99.90;;;10.50;100.00;97698.34;10134969;28;20697;-63
2023/11/19 17:26:19;;;;;;;2.95;2.75;;;9.90;99.90;;;10.44;100.00;97709.09;10105273;28;20237;-65
2023/11/19 17:31:24;;;;;;;3.28;2.97;;;9.80;99.90;;;10.36;100.00;97707.81;10106995;28;20230;-65
2023/11/19 17:36:27;;;;;;;4.03;3.72;;;9.70;99.90;;;10.24;100.00;97718.19;10110284;28;20234;-65
2023/11/19 17:41:30;;;;;;;4.07;3.78;;;9.60;99.90;;;10.20;100.00;97712.84;10113873;28;20242;-64
2023/11/19 17:46:35;;;;;;;4.00;3.70;;;9.60;99.90;;;10.19;100.00;97701.75;10111399;28;20761;-64
2023/11/19 17:51:39;;;;;;;4.65;4.13;;;9.50;99.90;;;10.20;100.00;97700.94;10109615;28;20238;-64
2023/11/19 17:56:42;;;;;;;5.50;5.00;;;9.60;99.90;;;10.16;100.00;97701.56;10113458;28;20722;-64
2023/11/19 18:01:47;;;;;;;6.03;4.93;;;9.60;99.90;;;10.11;100.00;97697.88;10109438;28;20250;-64
2023/11/19 18:06:50;;;;;;;7.63;5.35;;;9.50;99.90;;;10.13;100.00;97698.84;10113159;28;20268;-65
2023/11/19 18:11:54;;;;;;;4.30;4.00;;;9.50;99.90;;;10.18;100.00;97687.19;10114813;28;20231;-65
2023/11/19 18:17:10;;;;;;;3.88;3.58;;;9.60;99.90;;;10.23;100.00;97683.22;10104604;28;20231;-64
2023/11/19 18:22:14;;;;;;;4.47;4.07;;;9.60;99.90;;;10.22;100.00;97693.38;10101839;28;20591;-64
2023/11/19 18:27:19;;;;;;;3.83;3.63;;;9.60;99.90;;;10.28;100.00;97694.63;10128173;28;20230;-63
2023/11/19 18:32:24;;;;;;;3.65;3.35;;;9.70;99.90;;;10.50;100.00;97689.03;10180103;28;20752;-63
2023/11/19 18:37:27;;;;;;;4.78;4.38;;;9.90;99.90;;;10.61;100.00;97689.56;10121161;28;20237;-64
2023/11/19 18:42:30;;;;;;;3.50;3.08;;;10.00;99.90;;;10.74;100.00;97696.25;10121018;28;20269;-64
2023/11/19 18:47:38;;;;;;;3.65;3.35;;;10.10;99.90;;;10.78;100.00;97696.47;10124438;28;20234;-66
2023/11/19 18:52:44;;;;;;;4.07;3.70;;;10.20;99.90;;;11.03;100.00;97716.56;10118120;28;20253;-65
2023/11/19 18:57:49;;;;;;;3.75;2.95;;;10.40;99.90;;;11.07;100.00;97724.41;10130481;28;20707;-65
2023/11/19 19:02:53;;;;;;;15.45;13.82;;;10.50;99.90;;;11.11;100.00;97706.75;10136385;28;22017;-64
2023/11/19 19:08:01;;;;;;;7.07;6.47;;;10.60;99.90;;;11.26;100.00;97711.78;10129238;28;20226;-64
2023/11/19 19:13:08;;;;;;;4.40;4.10;;;10.70;99.90;;;11.32;100.00;97721.44;10137418;28;20698;-65
2023/11/19 19:18:12;;;;;;;6.03;5.13;;;10.70;99.90;;;11.33;100.00;97731.78;10115757;28;20235;-64
2023/11/19 19:23:15;;;;;;;3.00;2.67;;;10.80;99.90;;;11.41;100.00;97735.59;10142527;28;20805;-64
2023/11/19 19:28:22;;;;;;;3.17;2.88;;;10.90;99.90;;;11.46;100.00;97739.25;10124314;28;20244;-65
2023/11/19 19:33:27;;;;;;;3.85;3.47;;;11.00;99.90;;;11.40;100.00;97773.91;10187002;28;20226;-63
2023/11/19 19:38:30;;;;;;;3.22;2.90;;;11.00;99.90;;;11.22;100.00;97766.16;10143362;28;20246;-65
2023/11/19 19:43:36;;;;;;;3.33;3.03;;;10.90;99.90;;;10.93;100.00;97785.03;10121688;28;20241;-65
2023/11/19 19:48:43;;;;;;;4.47;4.18;;;10.70;99.90;;;10.79;100.00;97804.75;10123785;28;20308;-65
2023/11/19 19:53:47;;;;;;;5.25;4.30;;;10.50;99.90;;;10.63;100.00;97800.44;10124311;28;20318;-65
2023/11/19 19:58:52;;;;;;;15.05;12.25;;;10.30;99.90;;;10.60;100.00;97795.19;10124920;28;20449;-64
2023/11/19 20:04:04;;;;;;;7.40;6.32;;;10.20;99.90;;;10.52;100.00;97806.63;10128910;28;20233;-63
2023/11/19 20:09:13;;;;;;;9.55;8.80;;;10.20;99.90;;;10.53;100.00;97808.38;10130936;28;20634;-63
2023/11/19 20:14:22;;;;;;;5.30;4.80;;;10.10;99.90;;;10.50;100.00;97808.22;10134816;28;20255;-65
2023/11/19 20:19:28;;;;;;;5.50;5.00;;;10.10;99.90;;;10.53;100.00;97804.19;10113352;28;20235;-64
2023/11/19 20:24:34;;;;;;;6.57;4.47;;;10.10;99.90;;;10.68;100.00;97816.06;10127440;28;20567;-65
2023/11/19 20:29:38;;;;;;;6.10;3.78;;;10.20;99.90;;;10.58;100.00;97815.53;10128662;28;20317;-64
2023/11/19 20:34:45;;;;;;;6.28;3.60;;;10.20;99.90;;;10.58;100.00;97801.88;10120715;28;20229;-65
2023/11/19 20:39:48;;;;;;;5.22;3.30;;;10.10;99.90;;;10.53;100.00;97809.28;10122934;28;20234;-64
2023/11/19 20:44:52;;;;;;;6.47;4.50;;;10.10;99.90;;;10.55;100.00;97822.16;10119115;28;20662;-63
2023/11/19 20:49:57;;;;;;;8.35;4.55;;;10.10;99.90;;;10.51;100.00;97833.88;10147126;28;20230;-63
2023/11/19 20:55:02;;;;;;;6.03;4.10;;;10.10;99.90;;;10.69;100.00;97816.13;10148317;28;20230;-64
2023/11/19 21:00:08;;;;;;;9.10;4.10;;;10.20;99.90;;;10.49;100.00;97806.47;10190331;28;20770;-65
2023/11/19 21:05:13;;;;;;;6.82;4.15;;;10.10;99.90;;;10.57;100.00;97818.00;10124587;28;20770;-65